Time;durP1;ratioP1;P1;durP2;ratioP2;P2;SDS_P1;SDS_P2;PMS_P1;PMS_P2;Temp;Humidity;BMP_temperature;BMP_pressure;BME280_temperature;BME280_humidity;BME280_pressure;Samples;Min_cycle;Max_cycle;Signal;HPM_P1;HPM_P2
2023/08/29 00:02:19;;;;;;;;;;;19.20;69.60;;;;;;5096846;28;20010;-67
2023/08/29 00:04:45;;;;;;;;;;;19.20;69.60;;;;;;5114687;28;19926;-67
2023/08/29 00:07:10;;;;;;;;;;;19.20;69.70;;;;;;5114767;28;20279;-67
2023/08/29 00:09:35;;;;;;;;;;;19.20;69.70;;;;;;5096372;28;20375;-67
2023/08/29 00:12:03;;;;;;;;;;;19.20;69.60;;;;;;5096402;28;19927;-67
2023/08/29 00:14:29;;;;;;;;;;;19.20;69.70;;;;;;5096320;28;19972;-67
2023/08/29 00:16:54;;;;;;;;;;;19.20;69.70;;;;;;5096427;28;19927;-67
2023/08/29 00:19:21;;;;;;;;;;;19.20;69.70;;;;;;5096455;28;20003;-67
2023/08/29 00:21:47;;;;;;;;;;;19.20;69.70;;;;;;5114423;28;20291;-67
2023/08/29 00:24:13;;;;;;;;;;;19.20;69.70;;;;;;5114398;28;19973;-65
2023/08/29 00:26:39;;;;;;;;;;;19.20;69.70;;;;;;5096074;28;20378;-65
2023/08/29 00:29:04;;;;;;;;;;;19.20;69.70;;;;;;5096348;28;19924;-65
2023/08/29 00:31:30;;;;;;;;;;;19.20;69.70;;;;;;5095927;28;19949;-65
2023/08/29 00:33:55;;;;;;;;;;;19.10;69.70;;;;;;5096227;28;20377;-65
2023/08/29 00:36:21;;;;;;;;;;;19.20;69.70;;;;;;5095788;28;20003;-70
2023/08/29 00:38:46;;;;;;;;;;;19.20;69.70;;;;;;5095953;28;19924;-65
2023/08/29 00:41:12;;;;;;;;;;;19.20;69.70;;;;;;5096027;28;19923;-65
2023/08/29 00:43:38;;;;;;;;;;;19.10;69.90;;;;;;5095885;28;19920;-65
2023/08/29 00:46:04;;;;;;;;;;;19.20;69.70;;;;;;5095925;28;20114;-65
2023/08/29 00:48:31;;;;;;;;;;;19.10;69.70;;;;;;5095992;28;19920;-65
2023/08/29 00:50:57;;;;;;;;;;;19.10;69.70;;;;;;5095539;28;19919;-65
2023/08/29 00:53:22;;;;;;;;;;;19.10;69.70;;;;;;5114035;28;19989;-65
2023/08/29 00:55:48;;;;;;;;;;;19.20;69.70;;;;;;5113846;28;19934;-65
2023/08/29 00:58:13;;;;;;;;;;;19.10;69.70;;;;;;5113390;28;19967;-65
2023/08/29 01:00:39;;;;;;;;;;;19.10;69.70;;;;;;5113782;28;19923;-65
2023/08/29 01:03:05;;;;;;;;;;;19.10;69.70;;;;;;5095667;28;19926;-65
2023/08/29 01:05:30;;;;;;;;;;;19.10;69.70;;;;;;5095216;28;19919;-65
2023/08/29 01:07:58;;;;;;;;;;;19.10;69.70;;;;;;5095300;28;19923;-65
2023/08/29 01:10:30;;;;;;;;;;;19.10;69.80;;;;;;5095225;28;19920;-65
2023/08/29 01:13:01;;;;;;;;;;;19.10;69.70;;;;;;5095176;28;19920;-65
2023/08/29 01:15:29;;;;;;;;;;;19.10;69.70;;;;;;5095224;28;19920;-65
2023/08/29 01:17:58;;;;;;;;;;;19.10;69.70;;;;;;5095151;28;19924;-65
2023/08/29 01:20:27;;;;;;;;;;;19.10;69.70;;;;;;5095338;28;20267;-65
2023/08/29 01:23:10;;;;;;;;;;;19.10;69.70;;;;;;5113408;28;19919;-65
2023/08/29 01:28:17;;;;;;;;;;;19.10;69.70;;;;;;5110246;27;19934;-65
2023/08/29 01:30:43;;;;;;;;;;;19.00;69.60;;;;;;5108923;28;19920;-65
2023/08/29 01:33:09;;;;;;;;;;;19.10;69.70;;;;;;5108905;28;19920;-65
2023/08/29 01:35:41;;;;;;;;;;;19.00;69.70;;;;;;5109449;28;19926;-65
2023/08/29 01:38:06;;;;;;;;;;;19.00;69.70;;;;;;5109288;28;19920;-65
2023/08/29 01:40:32;;;;;;;;;;;19.00;69.60;;;;;;5108831;28;20272;-65
2023/08/29 01:42:57;;;;;;;;;;;19.00;69.60;;;;;;5108741;28;19943;-66
2023/08/29 01:45:23;;;;;;;;;;;19.00;69.50;;;;;;5108675;28;19920;-65
2023/08/29 01:47:48;;;;;;;;;;;19.10;69.60;;;;;;5108512;28;19931;-65
2023/08/29 01:50:16;;;;;;;;;;;19.00;69.60;;;;;;5108965;28;20007;-70
2023/08/29 01:52:41;;;;;;;;;;;19.00;69.60;;;;;;5108896;28;19925;-65
2023/08/29 01:55:07;;;;;;;;;;;19.00;69.60;;;;;;5108510;28;20355;-65
2023/08/29 01:57:35;;;;;;;;;;;19.00;69.60;;;;;;5108386;28;19920;-68
2023/08/29 02:00:02;;;;;;;;;;;19.00;69.60;;;;;;5109626;28;20332;-65
2023/08/29 02:02:28;;;;;;;;;;;19.00;69.60;;;;;;5109538;28;20298;-65
2023/08/29 02:04:54;;;;;;;;;;;19.00;69.60;;;;;;5109937;28;19988;-65
2023/08/29 02:07:19;;;;;;;;;;;19.00;69.60;;;;;;5108291;28;20014;-71
2023/08/29 02:09:45;;;;;;;;;;;19.00;69.50;;;;;;5108444;28;19962;-65
2023/08/29 02:12:10;;;;;;;;;;;19.00;69.50;;;;;;5108535;28;20283;-65
2023/08/29 02:14:35;;;;;;;;;;;19.00;69.50;;;;;;5107351;28;19927;-65
2023/08/29 02:17:01;;;;;;;;;;;19.00;69.50;;;;;;5108408;28;19969;-65
2023/08/29 02:19:28;;;;;;;;;;;19.00;69.50;;;;;;5109250;28;19920;-65
2023/08/29 02:21:53;;;;;;;;;;;18.90;69.50;;;;;;5108302;28;19920;-65
2023/08/29 02:24:19;;;;;;;;;;;18.90;69.50;;;;;;5109179;28;19923;-65
2023/08/29 02:26:44;;;;;;;;;;;18.90;69.50;;;;;;5107852;28;20298;-65
2023/08/29 02:29:09;;;;;;;;;;;18.90;69.50;;;;;;5109138;28;19919;-65
2023/08/29 02:31:35;;;;;;;;;;;18.90;69.50;;;;;;5107781;28;19956;-65
2023/08/29 02:34:01;;;;;;;;;;;18.90;69.50;;;;;;5108079;28;19955;-65
2023/08/29 02:36:27;;;;;;;;;;;18.90;69.50;;;;;;5107671;28;20375;-65
2023/08/29 02:38:53;;;;;;;;;;;18.90;69.50;;;;;;5098506;28;19920;-65
2023/08/29 02:41:19;;;;;;;;;;;18.90;69.50;;;;;;5095420;28;19931;-65
2023/08/29 02:43:44;;;;;;;;;;;18.90;70.30;;;;;;5094334;28;20291;-65
2023/08/29 02:46:11;;;;;;;;;;;18.90;69.50;;;;;;5095109;28;19928;-65
2023/08/29 02:48:36;;;;;;;;;;;18.90;69.50;;;;;;5093899;28;19934;-65
2023/08/29 02:51:02;;;;;;;;;;;18.90;69.50;;;;;;5093823;28;19924;-65
2023/08/29 02:53:29;;;;;;;;;;;18.90;69.50;;;;;;5093804;28;19926;-65
2023/08/29 02:55:56;;;;;;;;;;;18.90;69.50;;;;;;5094198;28;19920;-65
2023/08/29 02:58:21;;;;;;;;;;;18.90;69.50;;;;;;5094975;28;20303;-65
2023/08/29 03:00:47;;;;;;;;;;;18.90;69.50;;;;;;5095003;28;19920;-65
2023/08/29 03:03:13;;;;;;;;;;;18.90;69.50;;;;;;5094730;28;19920;-65
2023/08/29 03:05:42;;;;;;;;;;;18.90;69.50;;;;;;5093880;28;19985;-68
2023/08/29 03:08:07;;;;;;;;;;;18.90;69.50;;;;;;5093558;28;19951;-65
2023/08/29 03:10:36;;;;;;;;;;;18.90;69.50;;;;;;5094812;28;20276;-65
2023/08/29 03:13:02;;;;;;;;;;;18.80;69.40;;;;;;5093819;28;19926;-65
2023/08/29 03:15:31;;;;;;;;;;;18.80;69.40;;;;;;5093659;28;19920;-65
2023/08/29 03:17:59;;;;;;;;;;;18.90;69.40;;;;;;5093344;28;19920;-65
2023/08/29 03:20:24;;;;;;;;;;;18.80;69.40;;;;;;5093685;28;20288;-65
2023/08/29 03:22:50;;;;;;;;;;;18.80;69.30;;;;;;5093230;28;19938;-65
2023/08/29 03:25:15;;;;;;;;;;;18.90;69.40;;;;;;5093554;28;20328;-66
2023/08/29 03:27:41;;;;;;;;;;;18.80;69.30;;;;;;5092875;28;19966;-65
2023/08/29 03:30:06;;;;;;;;;;;18.80;69.30;;;;;;5127319;27;19920;-71
2023/08/29 03:32:32;;;;;;;;;;;18.80;69.30;;;;;;5093187;28;19985;-65
2023/08/29 03:34:58;;;;;;;;;;;18.80;69.40;;;;;;5092991;28;19973;-65
2023/08/29 03:37:23;;;;;;;;;;;18.80;69.30;;;;;;5093245;28;19924;-66
2023/08/29 03:39:49;;;;;;;;;;;18.80;69.30;;;;;;5092906;28;19927;-65
2023/08/29 03:42:14;;;;;;;;;;;18.80;69.30;;;;;;5126987;27;19946;-65
2023/08/29 03:44:40;;;;;;;;;;;18.80;70.10;;;;;;5093057;28;19920;-66
2023/08/29 03:47:05;;;;;;;;;;;18.80;69.30;;;;;;5093935;28;19924;-65
2023/08/29 03:49:31;;;;;;;;;;;18.80;69.30;;;;;;5093166;28;19920;-65
2023/08/29 03:51:56;;;;;;;;;;;18.80;69.30;;;;;;5092358;28;19920;-65
2023/08/29 03:54:22;;;;;;;;;;;18.70;69.30;;;;;;5092970;28;19920;-65
2023/08/29 03:56:48;;;;;;;;;;;18.80;69.40;;;;;;5092846;28;20015;-65
2023/08/29 03:59:14;;;;;;;;;;;18.70;69.30;;;;;;5092828;28;19943;-70
2023/08/29 04:01:39;;;;;;;;;;;18.70;69.30;;;;;;5092362;28;19923;-65
2023/08/29 04:04:05;;;;;;;;;;;18.70;69.30;;;;;;5094045;28;19973;-65
2023/08/29 04:06:34;;;;;;;;;;;18.70;69.30;;;;;;5093816;28;20387;-65
2023/08/29 04:08:59;;;;;;;;;;;18.70;69.30;;;;;;5092241;28;19927;-65
2023/08/29 04:11:25;;;;;;;;;;;18.70;69.30;;;;;;5091499;28;20007;-65
2023/08/29 04:13:51;;;;;;;;;;;18.70;69.30;;;;;;5092196;28;19920;-65
2023/08/29 04:16:17;;;;;;;;;;;18.70;69.30;;;;;;5093542;28;20006;-65
2023/08/29 04:18:42;;;;;;;;;;;18.70;69.30;;;;;;5092400;28;19965;-65
2023/08/29 04:21:08;;;;;;;;;;;18.70;69.30;;;;;;5092432;28;20372;-71
2023/08/29 04:23:33;;;;;;;;;;;18.70;69.20;;;;;;5092410;28;19927;-65
2023/08/29 04:25:59;;;;;;;;;;;18.70;69.20;;;;;;5093513;28;19988;-65
2023/08/29 04:28:25;;;;;;;;;;;18.70;69.20;;;;;;5095306;28;19924;-65
2023/08/29 04:30:50;;;;;;;;;;;18.70;69.20;;;;;;5113658;28;19920;-65
2023/08/29 04:33:16;;;;;;;;;;;18.70;69.20;;;;;;5113473;28;19926;-65
2023/08/29 04:35:42;;;;;;;;;;;18.70;69.20;;;;;;5095609;28;19924;-70
2023/08/29 04:38:07;;;;;;;;;;;18.70;69.20;;;;;;5113496;28;20294;-65
2023/08/29 04:40:32;;;;;;;;;;;18.70;69.20;;;;;;5095402;28;19920;-65
2023/08/29 04:42:58;;;;;;;;;;;18.70;69.20;;;;;;5095493;28;19937;-65
2023/08/29 04:45:24;;;;;;;;;;;18.60;69.10;;;;;;5095037;28;20340;-65
2023/08/29 04:47:49;;;;;;;;;;;18.60;69.10;;;;;;5113230;28;19978;-65
2023/08/29 04:50:14;;;;;;;;;;;18.70;69.20;;;;;;5095204;28;20382;-65
2023/08/29 04:52:40;;;;;;;;;;;18.60;69.00;;;;;;5113297;28;19923;-65
2023/08/29 04:55:06;;;;;;;;;;;18.60;69.10;;;;;;5094976;28;19920;-66
2023/08/29 04:57:32;;;;;;;;;;;18.60;69.00;;;;;;5095471;28;19920;-65
2023/08/29 04:59:58;;;;;;;;;;;18.60;69.00;;;;;;5113260;28;19919;-65
2023/08/29 05:02:23;;;;;;;;;;;18.60;69.00;;;;;;5112906;28;19920;-65
2023/08/29 05:04:49;;;;;;;;;;;18.60;69.00;;;;;;5112969;28;19972;-65
2023/08/29 05:07:14;;;;;;;;;;;18.60;69.00;;;;;;5094858;28;20299;-65
2023/08/29 05:09:40;;;;;;;;;;;18.60;69.00;;;;;;5094935;28;20379;-70
2023/08/29 05:12:10;;;;;;;;;;;18.60;69.00;;;;;;5113184;28;20286;-65
2023/08/29 05:14:35;;;;;;;;;;;18.60;69.00;;;;;;5094933;28;19926;-65
2023/08/29 05:17:01;;;;;;;;;;;18.50;69.00;;;;;;5112956;28;19920;-65
2023/08/29 05:19:26;;;;;;;;;;;18.50;69.00;;;;;;5094962;28;20320;-65
2023/08/29 05:21:52;;;;;;;;;;;18.50;69.00;;;;;;5128561;27;19980;-65
2023/08/29 05:24:17;;;;;;;;;;;18.50;69.00;;;;;;5128987;27;19947;-65
2023/08/29 05:26:44;;;;;;;;;;;18.50;69.00;;;;;;5094257;28;19924;-65
2023/08/29 05:29:10;;;;;;;;;;;18.50;68.90;;;;;;5112862;28;19920;-65
2023/08/29 05:31:35;;;;;;;;;;;18.60;69.00;;;;;;5128571;28;19919;-66
2023/08/29 05:34:00;;;;;;;;;;;18.50;69.00;;;;;;5128863;28;19963;-65
2023/08/29 05:36:26;;;;;;;;;;;18.50;68.90;;;;;;5112596;28;19945;-65
2023/08/29 05:38:51;;;;;;;;;;;18.50;69.00;;;;;;5094730;28;20363;-65
2023/08/29 05:41:17;;;;;;;;;;;18.50;69.00;;;;;;5128454;28;19972;-65
2023/08/29 05:43:42;;;;;;;;;;;18.50;68.90;;;;;;5112667;28;19920;-65
2023/08/29 05:46:08;;;;;;;;;;;18.50;68.90;;;;;;5112582;28;19923;-65
2023/08/29 05:48:33;;;;;;;;;;;18.50;68.90;;;;;;5094369;28;20477;-65
2023/08/29 05:50:59;;;;;;;;;;;18.50;68.90;;;;;;5094591;28;19920;-65
2023/08/29 05:53:24;;;;;;;;;;;18.50;69.00;;;;;;5094292;28;20294;-65
2023/08/29 05:55:50;;;;;;;;;;;18.50;68.90;;;;;;5112691;28;20020;-65
2023/08/29 05:58:16;;;;;;;;;;;18.50;69.00;;;;;;5094740;28;20435;-65
2023/08/29 06:00:41;;;;;;;;;;;18.50;68.90;;;;;;5128657;28;19919;-65
2023/08/29 06:03:07;;;;;;;;;;;18.50;68.90;;;;;;5112401;28;20655;-65
2023/08/29 06:05:33;;;;;;;;;;;18.50;68.90;;;;;;5094499;28;19941;-66
2023/08/29 06:08:01;;;;;;;;;;;18.50;68.90;;;;;;5094038;28;19927;-65
2023/08/29 06:10:26;;;;;;;;;;;18.50;68.90;;;;;;5094486;28;20333;-65
2023/08/29 06:12:52;;;;;;;;;;;18.50;68.90;;;;;;5094679;28;19969;-65
2023/08/29 06:15:17;;;;;;;;;;;18.50;68.90;;;;;;5098442;28;19919;-65
2023/08/29 06:17:43;;;;;;;;;;;18.50;68.90;;;;;;5116254;28;20291;-66
2023/08/29 06:20:11;;;;;;;;;;;18.50;68.90;;;;;;5098118;28;19977;-66
2023/08/29 06:22:37;;;;;;;;;;;18.50;68.90;;;;;;5097768;28;19920;-65
2023/08/29 06:25:02;;;;;;;;;;;18.50;68.90;;;;;;5098071;28;19928;-66
2023/08/29 06:27:28;;;;;;;;;;;18.50;68.90;;;;;;5097393;28;20002;-65
2023/08/29 06:29:53;;;;;;;;;;;18.50;68.90;;;;;;5097058;28;19984;-65
2023/08/29 06:32:19;;;;;;;;;;;18.50;68.90;;;;;;5097788;28;19934;-66
2023/08/29 06:34:45;;;;;;;;;;;18.40;67.50;;;;;;5115896;28;20413;-65
2023/08/29 06:37:10;;;;;;;;;;;18.20;67.20;;;;;;5115791;28;19964;-65
2023/08/29 06:39:36;;;;;;;;;;;18.00;67.60;;;;;;5115649;28;20375;-65
2023/08/29 06:42:02;;;;;;;;;;;17.70;68.20;;;;;;5097377;28;19923;-68
2023/08/29 06:44:27;;;;;;;;;;;17.50;68.50;;;;;;5115656;28;19920;-66
2023/08/29 06:46:53;;;;;;;;;;;17.40;68.90;;;;;;5094679;28;20435;-69
2023/08/29 06:49:18;;;;;;;;;;;17.20;69.40;;;;;;5097147;28;19924;-64
2023/08/29 06:51:44;;;;;;;;;;;17.10;69.90;;;;;;5129264;27;20302;-66
2023/08/29 06:54:09;;;;;;;;;;;17.00;70.30;;;;;;5094084;28;20022;-72
2023/08/29 06:56:35;;;;;;;;;;;17.00;71.50;;;;;;5097386;28;19927;-66
2023/08/29 06:59:00;;;;;;;;;;;17.10;71.70;;;;;;5115229;28;19919;-66
2023/08/29 07:01:26;;;;;;;;;;;17.30;71.50;;;;;;5131400;27;19920;-67
2023/08/29 07:03:52;;;;;;;;;;;17.50;71.20;;;;;;5096622;28;20402;-67
2023/08/29 07:06:17;;;;;;;;;;;17.60;70.90;;;;;;5131159;27;19967;-70
2023/08/29 07:08:43;;;;;;;;;;;17.70;70.60;;;;;;5094354;28;19939;-67
2023/08/29 07:11:09;;;;;;;;;;;17.90;70.40;;;;;;5114513;28;19997;-67
2023/08/29 07:13:34;;;;;;;;;;;18.00;70.30;;;;;;5094588;28;19926;-69
2023/08/29 07:16:00;;;;;;;;;;;18.10;70.10;;;;;;5095089;28;19971;-71
2023/08/29 07:18:25;;;;;;;;;;;18.10;69.80;;;;;;5115054;28;19927;-71
2023/08/29 07:20:51;;;;;;;;;;;18.20;69.50;;;;;;5096398;28;20014;-66
2023/08/29 07:23:17;;;;;;;;;;;18.30;69.40;;;;;;5096966;28;19920;-66
2023/08/29 07:25:43;;;;;;;;;;;18.30;69.30;;;;;;5096311;28;19964;-71
2023/08/29 07:28:09;;;;;;;;;;;18.40;69.20;;;;;;5096263;28;20516;-66
2023/08/29 07:30:38;;;;;;;;;;;18.50;69.30;;;;;;5095428;28;20074;-66
2023/08/29 07:33:03;;;;;;;;;;;18.50;69.10;;;;;;5129746;27;19919;-70
2023/08/29 07:35:29;;;;;;;;;;;18.50;69.00;;;;;;5096076;28;19935;-67
2023/08/29 07:37:54;;;;;;;;;;;18.60;69.00;;;;;;5096512;28;20358;-66
2023/08/29 07:40:20;;;;;;;;;;;18.60;68.90;;;;;;5114373;28;19926;-69
2023/08/29 07:42:45;;;;;;;;;;;18.60;68.70;;;;;;5096329;28;20285;-70
2023/08/29 07:45:11;;;;;;;;;;;18.70;68.60;;;;;;5114467;28;19927;-66
2023/08/29 07:47:36;;;;;;;;;;;18.70;68.60;;;;;;5096114;28;19930;-66
2023/08/29 07:50:02;;;;;;;;;;;18.60;68.50;;;;;;5096343;28;20022;-66
2023/08/29 07:52:28;;;;;;;;;;;18.70;68.70;;;;;;5096159;28;20375;-66
2023/08/29 07:54:53;;;;;;;;;;;18.70;68.80;;;;;;5114222;28;19920;-66
2023/08/29 07:57:19;;;;;;;;;;;18.80;68.90;;;;;;5095570;28;19930;-70
2023/08/29 07:59:44;;;;;;;;;;;18.80;68.80;;;;;;5095912;28;19926;-70
2023/08/29 08:02:10;;;;;;;;;;;18.80;68.80;;;;;;5095760;28;19981;-71
2023/08/29 08:04:36;;;;;;;;;;;18.90;68.90;;;;;;5114214;28;19920;-67
2023/08/29 08:07:01;;;;;;;;;;;18.90;68.90;;;;;;5129962;27;20014;-70
2023/08/29 08:09:27;;;;;;;;;;;18.90;69.30;;;;;;5097149;28;20453;-69
2023/08/29 08:11:52;;;;;;;;;;;18.90;69.00;;;;;;5101884;28;19943;-68
2023/08/29 08:14:18;;;;;;;;;;;18.90;69.10;;;;;;5113832;28;19923;-66
2023/08/29 08:16:44;;;;;;;;;;;19.00;69.20;;;;;;5095428;28;20000;-67
2023/08/29 08:19:10;;;;;;;;;;;19.00;69.40;;;;;;5129317;27;19974;-71
2023/08/29 08:21:35;;;;;;;;;;;19.00;69.40;;;;;;5113290;28;19920;-71
2023/08/29 08:24:01;;;;;;;;;;;19.00;69.50;;;;;;5095922;28;19926;-66
2023/08/29 08:26:27;;;;;;;;;;;19.00;69.50;;;;;;5094005;28;19924;-66
2023/08/29 08:28:54;;;;;;;;;;;19.10;69.60;;;;;;5113255;28;19924;-66
2023/08/29 08:31:19;;;;;;;;;;;19.10;69.70;;;;;;5094841;28;19926;-71
2023/08/29 08:33:45;;;;;;;;;;;19.00;69.70;;;;;;5095413;28;19920;-70
2023/08/29 08:36:10;;;;;;;;;;;19.10;69.70;;;;;;5128798;27;19919;-65
2023/08/29 08:38:36;;;;;;;;;;;19.10;69.80;;;;;;5128791;27;19970;-71
2023/08/29 08:41:02;;;;;;;;;;;19.10;69.80;;;;;;5113533;28;19920;-67
2023/08/29 08:43:29;;;;;;;;;;;19.10;69.80;;;;;;5095292;28;19920;-66
2023/08/29 08:45:55;;;;;;;;;;;19.10;69.80;;;;;;5094241;28;19926;-71
2023/08/29 08:48:21;;;;;;;;;;;19.10;69.70;;;;;;5094836;28;19968;-71
2023/08/29 08:50:48;;;;;;;;;;;19.20;69.80;;;;;;5112996;28;19920;-70
2023/08/29 08:53:14;;;;;;;;;;;19.20;69.80;;;;;;5094878;28;19969;-66
2023/08/29 08:55:40;;;;;;;;;;;19.20;69.80;;;;;;5113245;28;19927;-65
2023/08/29 08:58:06;;;;;;;;;;;19.20;69.80;;;;;;5095039;28;19920;-66
2023/08/29 09:00:32;;;;;;;;;;;19.20;69.80;;;;;;5113131;28;19927;-66
2023/08/29 09:02:58;;;;;;;;;;;19.20;69.80;;;;;;5095048;28;20267;-69
2023/08/29 09:05:24;;;;;;;;;;;19.20;69.70;;;;;;5094607;28;20382;-72
2023/08/29 09:07:49;;;;;;;;;;;19.20;69.60;;;;;;5094587;28;19928;-66
2023/08/29 09:10:16;;;;;;;;;;;19.20;69.60;;;;;;5093281;28;19920;-71
2023/08/29 09:12:45;;;;;;;;;;;19.20;69.60;;;;;;5129003;27;19926;-66
2023/08/29 09:15:10;;;;;;;;;;;19.20;69.70;;;;;;5113363;28;19920;-72
2023/08/29 09:17:36;;;;;;;;;;;19.20;69.70;;;;;;5129051;27;19927;-66
2023/08/29 09:20:05;;;;;;;;;;;19.10;69.70;;;;;;5112868;28;20022;-65
2023/08/29 09:22:31;;;;;;;;;;;19.10;69.70;;;;;;5094527;28;19920;-72
2023/08/29 09:25:01;;;;;;;;;;;19.10;69.70;;;;;;5128672;28;19919;-66
2023/08/29 09:27:26;;;;;;;;;;;19.10;69.70;;;;;;5128396;28;20170;-72
2023/08/29 09:29:52;;;;;;;;;;;19.10;69.70;;;;;;5128898;28;19962;-66
2023/08/29 09:32:17;;;;;;;;;;;19.00;69.60;;;;;;5094498;28;20014;-73
2023/08/29 09:34:43;;;;;;;;;;;19.00;69.60;;;;;;5094704;28;19927;-72
2023/08/29 09:37:10;;;;;;;;;;;19.00;69.60;;;;;;5094732;28;19924;-71
2023/08/29 09:39:36;;;;;;;;;;;19.00;69.50;;;;;;5112687;28;19920;-72
2023/08/29 09:44:42;;;;;;;;;;;19.10;69.50;;;;;;5089926;28;19919;-71
2023/08/29 09:47:09;;;;;;;;;;;19.00;69.40;;;;;;5088586;28;19920;-71
2023/08/29 09:49:42;;;;;;;;;;;19.00;69.40;;;;;;5088836;28;19924;-65
2023/08/29 09:52:08;;;;;;;;;;;19.00;69.30;;;;;;5089867;28;19921;-71
2023/08/29 09:54:35;;;;;;;;;;;19.00;69.30;;;;;;5089725;28;19924;-71
2023/08/29 09:57:02;;;;;;;;;;;18.90;69.20;;;;;;5088420;28;20367;-66
2023/08/29 09:59:29;;;;;;;;;;;19.00;69.20;;;;;;5088632;28;20022;-66
2023/08/29 10:01:55;;;;;;;;;;;19.00;69.20;;;;;;5088629;28;20008;-73
2023/08/29 10:04:21;;;;;;;;;;;19.00;69.20;;;;;;5088169;28;20013;-72
2023/08/29 10:06:48;;;;;;;;;;;19.00;69.10;;;;;;5088444;28;19928;-72
2023/08/29 10:09:14;;;;;;;;;;;19.00;69.10;;;;;;5088141;28;20410;-71
2023/08/29 10:11:40;;;;;;;;;;;19.00;69.10;;;;;;5088377;28;19959;-71
2023/08/29 10:14:07;;;;;;;;;;;19.00;69.00;;;;;;5088187;28;19920;-66
2023/08/29 10:16:33;;;;;;;;;;;19.00;69.00;;;;;;5089344;28;19920;-66
2023/08/29 10:18:59;;;;;;;;;;;19.00;69.00;;;;;;5088394;28;19921;-72
2023/08/29 10:21:24;;;;;;;;;;;19.00;68.90;;;;;;5087865;28;19921;-66
2023/08/29 10:23:50;;;;;;;;;;;19.00;69.00;;;;;;5087927;28;20308;-66
2023/08/29 10:26:17;;;;;;;;;;;19.00;68.90;;;;;;5089056;28;19951;-72
2023/08/29 10:28:44;;;;;;;;;;;19.00;68.80;;;;;;5089411;28;19951;-72
2023/08/29 10:31:09;;;;;;;;;;;19.00;68.80;;;;;;5087762;28;19931;-72
2023/08/29 10:33:36;;;;;;;;;;;19.00;68.80;;;;;;5089104;28;19920;-66
2023/08/29 10:36:03;;;;;;;;;;;19.00;68.80;;;;;;5087719;28;19924;-74
2023/08/29 10:38:30;;;;;;;;;;;19.00;68.80;;;;;;5087567;28;19927;-66
2023/08/29 10:41:06;;;;;;;;;;;19.00;69.50;;;;;;5087777;28;19920;-66
2023/08/29 10:43:32;;;;;;;;;;;19.00;68.80;;;;;;5087323;28;19993;-73
2023/08/29 10:46:12;;;;;;;;;;;19.00;68.80;;;;;;5087717;28;20405;-66
2023/08/29 10:51:22;;;;;;;;;;;19.00;68.80;;;;;;5110291;27;19918;-66
2023/08/29 10:56:38;;;;;;;;;;;19.00;68.80;;;;;;5110164;27;19913;-73
2023/08/29 10:59:04;;;;;;;;;;;19.00;68.80;;;;;;5109155;28;20333;-66
2023/08/29 11:01:30;;;;;;;;;;;19.00;68.90;;;;;;5109155;28;19924;-73
2023/08/29 11:03:56;;;;;;;;;;;19.00;68.90;;;;;;5109147;28;20035;-66
2023/08/29 11:06:23;;;;;;;;;;;19.00;68.90;;;;;;5108985;28;20391;-73
2023/08/29 11:08:49;;;;;;;;;;;19.00;68.90;;;;;;5109146;28;20478;-72
2023/08/29 11:11:18;;;;;;;;;;;19.00;68.80;;;;;;5108707;28;19950;-73
2023/08/29 11:14:04;;;;;;;;;;;19.00;68.80;;;;;;5108981;28;20435;-73
2023/08/29 11:16:30;;;;;;;;;;;18.90;68.80;;;;;;5109733;28;20062;-73
2023/08/29 11:19:03;;;;;;;;;;;19.00;68.90;;;;;;5109894;28;19924;-66
2023/08/29 11:21:32;;;;;;;;;;;18.90;68.80;;;;;;5109750;28;19920;-66
2023/08/29 11:23:58;;;;;;;;;;;18.90;68.80;;;;;;5108833;28;19927;-73
2023/08/29 11:26:23;;;;;;;;;;;18.90;68.80;;;;;;5108763;28;20299;-66
2023/08/29 11:28:49;;;;;;;;;;;18.90;68.80;;;;;;5108346;28;20429;-73
2023/08/29 11:31:18;;;;;;;;;;;18.90;68.80;;;;;;5109686;28;19990;-73
2023/08/29 11:33:44;;;;;;;;;;;18.90;68.80;;;;;;5109481;28;19927;-66
2023/08/29 11:36:09;;;;;;;;;;;18.90;68.80;;;;;;5108186;28;19928;-66
2023/08/29 11:38:35;;;;;;;;;;;18.90;68.80;;;;;;5108135;28;19928;-72
2023/08/29 11:41:02;;;;;;;;;;;18.90;68.80;;;;;;5109594;28;19923;-66
2023/08/29 11:43:29;;;;;;;;;;;18.90;68.80;;;;;;5109425;28;19920;-73
2023/08/29 11:45:57;;;;;;;;;;;18.90;68.80;;;;;;5108031;28;19924;-71
2023/08/29 11:48:23;;;;;;;;;;;18.90;68.80;;;;;;5108248;28;20271;-66
2023/08/29 11:50:50;;;;;;;;;;;18.90;68.80;;;;;;5108082;28;19955;-72
2023/08/29 11:53:36;;;;;;;;;;;18.90;68.80;;;;;;5107924;28;20395;-72
2023/08/29 11:56:03;;;;;;;;;;;18.90;68.80;;;;;;5141817;27;19931;-66
2023/08/29 11:58:29;;;;;;;;;;;18.90;68.80;;;;;;5107666;28;20383;-72
2023/08/29 12:00:55;;;;;;;;;;;18.90;68.80;;;;;;5109508;28;19972;-71
2023/08/29 12:03:21;;;;;;;;;;;18.90;68.80;;;;;;5109109;28;19920;-72
2023/08/29 12:05:48;;;;;;;;;;;18.90;68.80;;;;;;5107028;28;19928;-73
2023/08/29 12:08:14;;;;;;;;;;;18.90;68.80;;;;;;5093915;28;20402;-73
2023/08/29 12:10:49;;;;;;;;;;;18.90;68.80;;;;;;5095404;28;19982;-71
2023/08/29 12:13:14;;;;;;;;;;;18.90;68.80;;;;;;5093979;28;19920;-72
2023/08/29 12:15:40;;;;;;;;;;;18.90;68.80;;;;;;5093877;28;19935;-66
2023/08/29 12:18:05;;;;;;;;;;;18.90;68.80;;;;;;5094269;28;19943;-71
2023/08/29 12:20:33;;;;;;;;;;;18.90;68.80;;;;;;5093783;28;20299;-72
2023/08/29 12:22:59;;;;;;;;;;;18.90;68.80;;;;;;5094131;28;19927;-71
2023/08/29 12:25:24;;;;;;;;;;;18.90;68.80;;;;;;5094536;28;19920;-73
2023/08/29 12:27:50;;;;;;;;;;;19.00;68.80;;;;;;5093967;28;19920;-70
2023/08/29 12:30:16;;;;;;;;;;;18.90;68.90;;;;;;5094874;28;20013;-71
2023/08/29 12:32:42;;;;;;;;;;;19.00;69.40;;;;;;5093949;28;19979;-67
2023/08/29 12:35:08;;;;;;;;;;;19.00;69.50;;;;;;5093430;28;20303;-71
2023/08/29 12:37:33;;;;;;;;;;;19.10;69.80;;;;;;5093715;28;19920;-72
2023/08/29 12:39:59;;;;;;;;;;;19.20;69.80;;;;;;5094828;28;20024;-67
2023/08/29 12:42:24;;;;;;;;;;;19.20;69.80;;;;;;5094724;28;19920;-66
2023/08/29 12:44:50;;;;;;;;;;;19.30;69.80;;;;;;5092685;28;19920;-67
2023/08/29 12:47:16;;;;;;;;;;;19.30;70.00;;;;;;5094754;28;20341;-66
2023/08/29 12:49:41;;;;;;;;;;;19.30;69.80;;;;;;5093167;28;20437;-66
2023/08/29 12:52:07;;;;;;;;;;;19.40;70.00;;;;;;5093598;28;20326;-66
2023/08/29 12:54:35;;;;;;;;;;;19.40;70.00;;;;;;5075978;28;19978;-70
2023/08/29 12:57:00;;;;;;;;;;;19.40;70.00;;;;;;5093423;28;20321;-66
2023/08/29 12:59:26;;;;;;;;;;;19.40;70.20;;;;;;5082426;28;19920;-66
2023/08/29 13:01:52;;;;;;;;;;;19.50;70.20;;;;;;5084600;28;19935;-73
2023/08/29 13:04:17;;;;;;;;;;;19.50;70.10;;;;;;5083585;28;20292;-73
2023/08/29 13:06:43;;;;;;;;;;;19.50;69.90;;;;;;5082372;28;19932;-73
2023/08/29 13:09:08;;;;;;;;;;;19.50;69.90;;;;;;5082134;28;19920;-72
2023/08/29 13:11:34;;;;;;;;;;;19.50;69.90;;;;;;5082962;28;19920;-74
2023/08/29 13:13:59;;;;;;;;;;;19.60;69.90;;;;;;5082728;28;19924;-66
2023/08/29 13:16:33;;;;;;;;;;;19.60;69.80;;;;;;5082465;28;19925;-67
2023/08/29 13:18:58;;;;;;;;;;;19.50;69.80;;;;;;5081992;28;19927;-71
2023/08/29 13:21:24;;;;;;;;;;;19.60;69.80;;;;;;5082738;28;20372;-67
2023/08/29 13:23:50;;;;;;;;;;;19.60;69.80;;;;;;5082018;28;20410;-67
2023/08/29 13:26:15;;;;;;;;;;;19.60;69.80;;;;;;5081987;28;20107;-66
2023/08/29 13:28:41;;;;;;;;;;;19.60;69.80;;;;;;5079811;28;20015;-67
2023/08/29 13:31:07;;;;;;;;;;;19.60;69.70;;;;;;5078615;28;19942;-66
2023/08/29 13:33:33;;;;;;;;;;;19.60;69.70;;;;;;5118613;27;19920;-69
2023/08/29 13:35:59;;;;;;;;;;;19.60;69.70;;;;;;5080300;28;19928;-66
2023/08/29 13:38:24;;;;;;;;;;;19.60;69.70;;;;;;5081533;28;19920;-73
2023/08/29 13:40:51;;;;;;;;;;;19.60;69.80;;;;;;5083364;28;20032;-66
2023/08/29 13:43:17;;;;;;;;;;;19.70;69.80;;;;;;5081646;28;20006;-72
2023/08/29 13:45:43;;;;;;;;;;;19.60;69.80;;;;;;5083290;28;20336;-66
2023/08/29 13:48:08;;;;;;;;;;;19.70;69.80;;;;;;5079897;28;19998;-66
2023/08/29 13:50:34;;;;;;;;;;;19.70;69.90;;;;;;5082695;28;19927;-71
2023/08/29 13:52:59;;;;;;;;;;;19.70;70.60;;;;;;5081602;28;19925;-66
2023/08/29 13:55:26;;;;;;;;;;;19.70;69.90;;;;;;5096405;28;20413;-72
2023/08/29 13:57:52;;;;;;;;;;;19.70;69.80;;;;;;5084646;28;20291;-66
2023/08/29 14:00:17;;;;;;;;;;;19.70;69.90;;;;;;5099602;28;19927;-66
2023/08/29 14:02:43;;;;;;;;;;;19.70;69.90;;;;;;5085823;28;19970;-73
2023/08/29 14:05:09;;;;;;;;;;;19.80;69.90;;;;;;5084147;28;19920;-71
2023/08/29 14:07:34;;;;;;;;;;;19.80;69.90;;;;;;5118281;27;19931;-67
2023/08/29 14:10:00;;;;;;;;;;;19.80;70.00;;;;;;5085109;28;19920;-66
2023/08/29 14:12:25;;;;;;;;;;;19.90;70.00;;;;;;5069206;28;19924;-72
2023/08/29 14:14:51;;;;;;;;;;;19.90;70.00;;;;;;5101428;28;19931;-68
2023/08/29 14:17:16;;;;;;;;;;;19.90;70.00;;;;;;5083343;28;20076;-67
2023/08/29 14:19:42;;;;;;;;;;;19.90;70.00;;;;;;5083684;28;20387;-69
2023/08/29 14:22:07;;;;;;;;;;;19.90;69.90;;;;;;5082706;28;19919;-67